createdAt,value
2023-03-20T00:01:41.293Z,86.85
2023-03-20T00:04:10.042Z,87.05
2023-03-20T00:06:37.587Z,87.02
2023-03-20T00:09:07.403Z,86.73
2023-03-20T00:11:36.270Z,86.75
2023-03-20T00:14:04.344Z,86.48
2023-03-20T00:16:32.781Z,86.44
2023-03-20T00:19:01.954Z,85.94
2023-03-20T00:21:29.509Z,86.41
2023-03-20T00:23:57.228Z,86.44
2023-03-20T00:26:25.713Z,86.22
2023-03-20T00:28:53.199Z,85.73
2023-03-20T00:31:23.194Z,86.36
2023-03-20T00:33:50.991Z,85.72
2023-03-20T00:36:19.887Z,87.07
2023-03-20T00:41:19.750Z,86.43
2023-03-20T00:43:48.186Z,86.44
2023-03-20T00:46:15.907Z,85.92
2023-03-20T00:48:43.579Z,85.97
2023-03-20T00:51:11.154Z,86.08
2023-03-20T00:53:40.044Z,86.09
2023-03-20T00:56:08.093Z,86.06
2023-03-20T00:58:35.539Z,86.34
2023-03-20T01:01:03.112Z,86.12
2023-03-20T01:03:32.141Z,86.35
2023-03-20T01:05:59.850Z,85.84
2023-03-20T01:08:27.378Z,85.93
2023-03-20T01:10:56.463Z,86.92
2023-03-20T01:13:24.512Z,85.92
2023-03-20T01:15:52.616Z,86.50
2023-03-20T01:18:20.790Z,86.05
2023-03-20T01:20:48.487Z,86.44
2023-03-20T01:23:15.955Z,85.92
2023-03-20T01:25:43.516Z,85.97
2023-03-20T01:28:16.448Z,86.36
2023-03-20T01:30:44.010Z,86.05
2023-03-20T01:33:13.698Z,86.25
2023-03-20T01:35:41.275Z,86.35
2023-03-20T01:38:11.653Z,86.44
2023-03-20T01:40:41.731Z,86.32
2023-03-20T01:43:11.488Z,86.00
2023-03-20T01:45:40.419Z,85.46
2023-03-20T01:48:14.607Z,85.48
2023-03-20T01:50:42.191Z,86.26
2023-03-20T01:53:11.162Z,86.45
2023-03-20T01:55:38.693Z,85.73
2023-03-20T01:58:07.674Z,86.03
2023-03-20T02:00:36.592Z,86.62
2023-03-20T02:03:05.649Z,86.38
2023-03-20T02:05:33.444Z,86.30
2023-03-20T02:08:04.692Z,86.45
2023-03-20T02:10:32.236Z,86.28
2023-03-20T02:13:00.459Z,86.43
2023-03-20T02:15:28.613Z,86.42
2023-03-20T02:17:56.086Z,85.62
2023-03-20T02:20:27.791Z,86.16
2023-03-20T02:23:13.912Z,85.59
2023-03-20T02:25:52.825Z,86.08
2023-03-20T02:28:38.008Z,85.71
2023-03-20T02:31:14.093Z,85.56
2023-03-20T02:33:46.740Z,85.23
2023-03-20T02:36:36.735Z,85.76
2023-03-20T02:39:08.672Z,85.58
2023-03-20T02:41:37.310Z,85.58
2023-03-20T02:44:06.018Z,85.55
2023-03-20T02:46:35.919Z,84.89
2023-03-20T02:49:04.631Z,85.00
2023-03-20T02:51:34.620Z,84.72
2023-03-20T02:54:03.956Z,85.11
2023-03-20T02:56:34.083Z,85.54
2023-03-20T02:59:03.813Z,84.87
2023-03-20T03:01:33.213Z,85.15
2023-03-20T03:04:01.681Z,84.90
2023-03-20T03:06:29.685Z,85.37
2023-03-20T03:09:00.168Z,85.27
2023-03-20T03:11:27.692Z,85.64
2023-03-20T03:13:56.922Z,85.32
2023-03-20T03:16:25.801Z,85.51
2023-03-20T03:18:55.467Z,84.73
2023-03-20T03:21:23.650Z,84.71
2023-03-20T03:23:51.137Z,85.38
2023-03-20T03:26:20.074Z,85.25
2023-03-20T03:28:48.549Z,85.35
2023-03-20T03:31:18.112Z,84.76
2023-03-20T03:33:45.925Z,84.85
2023-03-20T03:36:14.610Z,84.50
2023-03-20T03:38:45.465Z,84.79
2023-03-20T03:41:19.579Z,84.90
2023-03-20T03:43:47.837Z,85.66
2023-03-20T03:46:15.898Z,85.08
2023-03-20T03:48:45.370Z,85.17
2023-03-20T03:51:13.055Z,85.61
2023-03-20T03:53:41.213Z,84.71
2023-03-20T03:56:10.038Z,84.68
2023-03-20T03:58:38.120Z,84.71
2023-03-20T04:01:05.720Z,85.00
2023-03-20T04:03:34.049Z,85.69
2023-03-20T04:06:02.960Z,85.58
2023-03-20T04:08:30.467Z,85.16
2023-03-20T04:10:57.956Z,84.85
2023-03-20T04:13:25.504Z,84.89
2023-03-20T04:15:53.217Z,84.60
2023-03-20T04:18:20.857Z,84.70
2023-03-20T04:20:48.451Z,84.89
2023-03-20T04:23:17.336Z,85.25
2023-03-20T04:25:44.854Z,84.47
2023-03-20T04:28:12.357Z,84.79
2023-03-20T04:30:39.980Z,84.13
2023-03-20T04:33:07.799Z,84.38
2023-03-20T04:35:35.622Z,84.77
2023-03-20T04:38:03.506Z,84.51
2023-03-20T04:40:32.674Z,84.61
2023-03-20T04:43:00.345Z,84.47
2023-03-20T04:45:27.797Z,84.55
2023-03-20T04:47:55.358Z,84.37
2023-03-20T04:50:22.884Z,84.28
2023-03-20T04:52:50.580Z,84.12
2023-03-20T04:55:18.277Z,84.04
2023-03-20T04:57:47.239Z,83.99
2023-03-20T05:00:15.120Z,83.80
2023-03-20T05:02:42.662Z,83.89
2023-03-20T05:05:10.400Z,83.37
2023-03-20T05:07:37.983Z,83.39
2023-03-20T05:10:05.967Z,83.55
2023-03-20T05:12:33.453Z,83.63
2023-03-20T05:15:02.403Z,83.47
2023-03-20T05:17:29.889Z,83.31
2023-03-20T05:19:57.393Z,83.19
2023-03-20T05:22:24.807Z,83.40
2023-03-20T05:24:52.383Z,83.10
2023-03-20T05:27:19.956Z,83.25
2023-03-20T05:29:47.456Z,83.05
2023-03-20T05:32:16.450Z,83.18
2023-03-20T05:34:43.913Z,83.39
2023-03-20T05:37:11.468Z,83.32
2023-03-20T05:39:39.259Z,83.06
2023-03-20T05:42:06.725Z,83.07
2023-03-20T05:44:34.209Z,83.30
2023-03-20T05:47:01.807Z,83.12
2023-03-20T05:49:30.743Z,83.54
2023-03-20T05:51:58.267Z,83.21
2023-03-20T05:54:25.920Z,83.17
2023-03-20T05:56:53.484Z,83.31
2023-03-20T05:59:21.019Z,83.27
2023-03-20T06:01:48.507Z,83.02
2023-03-20T06:04:16.009Z,83.00
2023-03-20T06:06:44.871Z,83.22
2023-03-20T06:09:12.415Z,83.31
2023-03-20T06:11:39.952Z,83.24
2023-03-20T06:14:07.486Z,83.36
2023-03-20T06:16:34.977Z,83.49
2023-03-20T06:19:02.465Z,83.36
2023-03-20T06:21:29.932Z,83.55
2023-03-20T06:23:59.943Z,83.33
2023-03-20T06:26:28.088Z,83.15
2023-03-20T06:28:55.915Z,82.90
2023-03-20T06:31:23.491Z,83.07
2023-03-20T06:33:51.043Z,83.19
2023-03-20T06:36:18.488Z,83.09
2023-03-20T06:38:46.002Z,83.19
2023-03-20T06:41:24.589Z,83.41
2023-03-20T06:44:01.184Z,83.61
2023-03-20T06:46:28.771Z,82.84
2023-03-20T06:48:56.361Z,82.75
2023-03-20T06:51:23.896Z,83.25
2023-03-20T06:53:51.450Z,82.89
2023-03-20T06:56:20.404Z,83.18
2023-03-20T06:58:47.900Z,83.86
2023-03-20T07:01:17.178Z,82.74
2023-03-20T07:03:45.077Z,82.85
2023-03-20T07:06:13.413Z,82.60
2023-03-20T07:08:41.284Z,82.86
2023-03-20T07:11:09.244Z,82.65
2023-03-20T07:13:38.162Z,82.59
2023-03-20T07:16:06.146Z,82.45
2023-03-20T07:18:33.712Z,82.69
2023-03-20T07:21:02.505Z,82.46
2023-03-20T07:23:30.651Z,82.26
2023-03-20T07:25:58.288Z,82.18
2023-03-20T07:28:26.034Z,82.37
2023-03-20T07:30:55.163Z,82.44
2023-03-20T07:33:22.738Z,82.14
2023-03-20T07:35:53.056Z,82.34
2023-03-20T07:38:20.630Z,82.15
2023-03-20T07:40:48.886Z,82.19
2023-03-20T07:43:16.489Z,81.95
2023-03-20T07:45:44.004Z,82.26
2023-03-20T07:48:13.079Z,82.18
2023-03-20T07:50:40.838Z,81.77
2023-03-20T07:53:08.538Z,82.04
2023-03-20T07:55:36.556Z,81.91
2023-03-20T07:58:04.448Z,81.83
2023-03-20T08:00:32.304Z,81.47
2023-03-20T08:02:59.917Z,81.65
2023-03-20T08:05:28.904Z,81.59
2023-03-20T08:07:56.532Z,81.43
2023-03-20T08:10:24.150Z,81.58
2023-03-20T08:12:51.658Z,81.57
2023-03-20T08:15:19.245Z,81.59
2023-03-20T08:17:47.127Z,81.19
2023-03-20T08:20:15.311Z,81.49
2023-03-20T08:22:44.740Z,81.23
2023-03-20T08:25:12.204Z,80.95
2023-03-20T08:27:39.698Z,81.12
2023-03-20T08:30:07.673Z,81.03
2023-03-20T08:32:35.157Z,81.58
2023-03-20T08:35:02.940Z,81.61
2023-03-20T08:37:30.600Z,80.97
2023-03-20T08:39:59.513Z,80.92
2023-03-20T08:42:27.123Z,80.75
2023-03-20T08:44:54.682Z,80.49
2023-03-20T08:47:22.292Z,80.60
2023-03-20T08:49:49.800Z,80.18
2023-03-20T08:52:17.312Z,80.38
2023-03-20T08:54:44.756Z,80.13
2023-03-20T08:57:13.706Z,80.22
2023-03-20T08:59:41.168Z,80.23
2023-03-20T09:02:08.881Z,80.30
2023-03-20T09:04:36.636Z,80.25
2023-03-20T09:07:04.111Z,80.17
2023-03-20T09:09:32.372Z,80.24
2023-03-20T09:11:59.904Z,80.30
2023-03-20T09:14:29.271Z,80.21
2023-03-20T09:16:56.760Z,79.84
2023-03-20T09:19:24.298Z,79.97
2023-03-20T09:21:51.807Z,79.66
2023-03-20T09:24:19.262Z,79.94
2023-03-20T09:26:46.817Z,79.07
2023-03-20T09:29:14.297Z,79.77
2023-03-20T09:31:43.200Z,79.66
2023-03-20T09:34:11.006Z,79.49
2023-03-20T09:36:38.474Z,79.20
2023-03-20T09:39:05.974Z,79.58
2023-03-20T09:41:45.857Z,79.43
2023-03-20T09:44:22.065Z,79.06
2023-03-20T09:47:18.396Z,79.17
2023-03-20T09:49:48.694Z,78.47
2023-03-20T09:52:19.485Z,79.15
2023-03-20T09:54:54.506Z,79.44
2023-03-20T09:57:23.731Z,79.61
2023-03-20T09:59:51.902Z,79.50
2023-03-20T10:02:24.354Z,79.15
2023-03-20T10:04:52.348Z,79.22
2023-03-20T10:07:19.809Z,78.79
2023-03-20T10:09:47.345Z,79.15
2023-03-20T10:12:20.680Z,78.94
2023-03-20T10:14:52.833Z,78.91
2023-03-20T10:17:25.529Z,79.18
2023-03-20T10:19:54.603Z,78.88
2023-03-20T10:22:25.318Z,78.58
2023-03-20T10:24:54.029Z,78.98
2023-03-20T10:27:25.077Z,78.77
2023-03-20T10:29:56.216Z,78.37
2023-03-20T10:32:26.240Z,78.57
2023-03-20T10:34:59.128Z,78.13
2023-03-20T10:37:30.601Z,78.22
2023-03-20T10:40:00.926Z,77.44
2023-03-20T10:42:28.762Z,78.10
2023-03-20T10:44:57.277Z,78.32
2023-03-20T10:47:26.420Z,78.25
2023-03-20T10:49:54.870Z,78.08
2023-03-20T10:52:24.024Z,78.12
2023-03-20T10:54:53.395Z,77.82
2023-03-20T10:57:22.214Z,78.07
2023-03-20T10:59:50.239Z,77.69
2023-03-20T11:02:18.543Z,76.19
2023-03-20T11:04:47.633Z,77.40
2023-03-20T11:07:16.791Z,77.79
2023-03-20T11:09:44.258Z,76.71
2023-03-20T11:12:16.415Z,78.33
2023-03-20T11:14:43.905Z,76.92
2023-03-20T11:17:11.524Z,77.94
2023-03-20T11:19:39.742Z,76.70
2023-03-20T11:22:23.020Z,77.46
2023-03-20T11:24:52.742Z,77.92
2023-03-20T11:27:20.864Z,78.48
2023-03-20T11:29:48.489Z,78.23
2023-03-20T11:32:19.144Z,78.35
2023-03-20T11:34:47.714Z,77.91
2023-03-20T11:37:24.344Z,74.72
2023-03-20T11:39:58.199Z,77.17
2023-03-20T11:42:26.363Z,78.17
2023-03-20T11:45:00.892Z,78.06
2023-03-20T11:47:29.179Z,78.17
2023-03-20T11:49:57.024Z,78.04
2023-03-20T11:52:28.632Z,77.82
2023-03-20T11:54:56.968Z,77.34
2023-03-20T11:57:29.926Z,77.90
2023-03-20T11:59:57.600Z,77.83
2023-03-20T12:02:25.312Z,77.90
2023-03-20T12:04:52.913Z,78.45
2023-03-20T12:07:20.893Z,77.93
2023-03-20T12:09:49.910Z,78.01
2023-03-20T12:12:19.984Z,77.74
2023-03-20T12:14:49.096Z,78.24
2023-03-20T12:17:22.130Z,77.93
2023-03-20T12:19:49.575Z,78.17
2023-03-20T12:22:19.980Z,78.17
2023-03-20T12:24:49.014Z,78.45
2023-03-20T12:27:18.674Z,78.84
2023-03-20T12:29:47.946Z,78.69
2023-03-20T12:32:16.470Z,78.64
2023-03-20T12:34:44.894Z,78.59
2023-03-20T12:37:13.301Z,78.87
2023-03-20T12:39:41.503Z,78.46
2023-03-20T12:42:10.627Z,78.42
2023-03-20T12:44:40.945Z,78.44
2023-03-20T12:47:16.579Z,78.17
2023-03-20T12:49:46.409Z,78.18
2023-03-20T12:52:15.585Z,78.86
2023-03-20T12:54:46.700Z,78.61
2023-03-20T12:57:17.370Z,78.55
2023-03-20T12:59:49.758Z,79.07
2023-03-20T13:02:20.644Z,79.05
2023-03-20T13:04:51.286Z,78.84
2023-03-20T13:07:19.428Z,78.93
2023-03-20T13:09:59.265Z,79.02
2023-03-20T13:12:30.370Z,78.52
2023-03-20T13:15:00.611Z,79.13
2023-03-20T13:17:28.967Z,78.99
2023-03-20T13:20:00.523Z,79.02
2023-03-20T13:22:30.492Z,78.99
2023-03-20T13:25:01.696Z,79.18
2023-03-20T13:27:31.625Z,79.38
2023-03-20T13:30:01.482Z,79.29
2023-03-20T13:32:32.890Z,79.18
2023-03-20T13:35:14.780Z,79.69
2023-03-20T13:37:42.754Z,79.73
2023-03-20T13:40:13.584Z,79.89
2023-03-20T13:42:43.889Z,80.21
2023-03-20T13:45:19.685Z,79.91
2023-03-20T13:47:47.284Z,80.27
2023-03-20T13:50:23.905Z,80.04
2023-03-20T13:52:53.491Z,80.41
2023-03-20T13:55:22.298Z,80.75
2023-03-20T13:57:54.766Z,80.63
2023-03-20T14:00:26.427Z,80.34
2023-03-20T14:03:03.160Z,80.92
2023-03-20T14:05:30.782Z,80.71
2023-03-20T14:07:58.635Z,80.83
2023-03-20T14:10:41.014Z,80.50
2023-03-20T14:13:12.755Z,80.63
2023-03-20T14:15:42.110Z,80.73
2023-03-20T14:18:15.034Z,80.75
2023-03-20T14:20:43.344Z,80.50
2023-03-20T14:23:16.565Z,80.99
2023-03-20T14:25:44.293Z,80.66
2023-03-20T14:28:24.587Z,81.29
2023-03-20T14:30:53.439Z,81.09
2023-03-20T14:33:26.132Z,81.05
2023-03-20T14:36:11.599Z,81.14
2023-03-20T14:38:40.123Z,81.46
2023-03-20T14:41:10.271Z,81.26
2023-03-20T14:43:43.641Z,81.46
2023-03-20T14:46:18.057Z,81.27
2023-03-20T14:48:45.758Z,82.54
2023-03-20T14:51:17.657Z,81.99
2023-03-20T14:53:45.493Z,81.97
2023-03-20T14:56:13.350Z,81.75
2023-03-20T14:58:48.880Z,81.85
2023-03-20T15:01:20.022Z,81.54
2023-03-20T15:03:48.774Z,81.75
2023-03-20T15:06:18.025Z,81.94
2023-03-20T15:08:46.381Z,81.77
2023-03-20T15:11:14.958Z,81.98
2023-03-20T15:13:42.445Z,81.99
2023-03-20T15:16:10.984Z,82.18
2023-03-20T15:18:40.737Z,82.59
2023-03-20T15:21:12.460Z,82.21
2023-03-20T15:23:41.947Z,82.36
2023-03-20T15:26:09.679Z,82.59
2023-03-20T15:28:37.747Z,82.58
2023-03-20T15:31:05.618Z,82.82
2023-03-20T15:33:33.777Z,82.43
2023-03-20T15:36:09.154Z,83.03
2023-03-20T15:38:36.676Z,83.28
2023-03-20T15:41:05.198Z,82.75
2023-03-20T15:43:33.001Z,83.10
2023-03-20T15:46:16.773Z,83.13
2023-03-20T15:48:47.984Z,82.74
2023-03-20T15:51:17.164Z,84.02
2023-03-20T15:53:45.852Z,83.28
2023-03-20T15:56:20.710Z,83.12
2023-03-20T15:58:49.077Z,83.94
2023-03-20T16:01:17.217Z,83.34
2023-03-20T16:03:44.767Z,82.97
2023-03-20T16:06:15.339Z,83.02
2023-03-20T16:08:46.120Z,83.16
2023-03-20T16:11:15.382Z,82.96
2023-03-20T16:13:43.758Z,83.22
2023-03-20T16:16:12.952Z,83.03
2023-03-20T16:18:40.530Z,83.38
2023-03-20T16:21:08.714Z,83.41
2023-03-20T16:23:36.832Z,83.59
2023-03-20T16:26:06.624Z,83.35
2023-03-20T16:28:36.579Z,83.53
2023-03-20T16:32:19.916Z,83.80
2023-03-20T16:34:48.683Z,83.91
2023-03-20T16:37:23.482Z,84.34
2023-03-20T16:40:02.272Z,84.20
2023-03-20T16:42:30.443Z,84.02
2023-03-20T16:44:58.739Z,83.83
2023-03-20T16:47:32.955Z,84.75
2023-03-20T16:50:21.924Z,84.47
2023-03-20T16:52:50.548Z,83.92
2023-03-20T16:55:19.218Z,84.63
2023-03-20T16:57:47.544Z,85.42
2023-03-20T17:00:20.716Z,84.14
2023-03-20T17:02:52.974Z,84.94
2023-03-20T17:05:21.959Z,85.15
2023-03-20T17:07:52.329Z,84.27
2023-03-20T17:10:20.908Z,84.69
2023-03-20T17:12:48.914Z,84.32
2023-03-20T17:15:16.625Z,84.32
2023-03-20T17:17:44.466Z,84.28
2023-03-20T17:20:18.176Z,86.32
2023-03-20T17:22:45.888Z,84.39
2023-03-20T17:25:13.443Z,84.23
2023-03-20T17:27:41.117Z,84.40
2023-03-20T17:30:12.042Z,84.16
2023-03-20T17:32:39.571Z,84.25
2023-03-20T17:35:07.609Z,84.19
2023-03-20T17:37:36.574Z,84.76
2023-03-20T17:40:04.252Z,84.32
2023-03-20T17:42:32.164Z,84.49
2023-03-20T17:44:59.727Z,84.40
2023-03-20T17:47:27.911Z,84.96
2023-03-20T17:49:55.993Z,84.73
2023-03-20T17:52:24.229Z,84.62
2023-03-20T17:54:53.486Z,85.07
2023-03-20T17:57:21.662Z,85.41
2023-03-20T17:59:50.032Z,85.35
2023-03-20T18:02:18.245Z,86.23
2023-03-20T18:04:45.860Z,87.93
2023-03-20T18:07:13.602Z,85.73
2023-03-20T18:09:41.646Z,85.73
2023-03-20T18:12:15.026Z,84.96
2023-03-20T18:14:43.178Z,84.96
2023-03-20T18:17:11.591Z,85.70
2023-03-20T18:19:39.046Z,85.26
2023-03-20T18:22:07.092Z,90.52
2023-03-20T18:24:34.751Z,87.45
2023-03-20T18:27:02.507Z,85.84
2023-03-20T18:29:31.412Z,85.74
2023-03-20T18:31:58.963Z,87.11
2023-03-20T18:34:26.552Z,85.38
2023-03-20T18:36:54.070Z,85.11
2023-03-20T18:39:22.333Z,85.36
2023-03-20T18:41:50.070Z,85.67
2023-03-20T18:44:17.604Z,85.27
2023-03-20T18:46:46.595Z,85.25
2023-03-20T18:49:15.368Z,84.85
2023-03-20T18:51:42.874Z,84.83
2023-03-20T18:54:10.378Z,85.51
2023-03-20T18:56:37.971Z,85.73
2023-03-20T18:59:06.582Z,86.01
2023-03-20T19:01:34.307Z,85.67
2023-03-20T19:04:03.442Z,89.50
2023-03-20T19:06:32.220Z,86.13
2023-03-20T19:08:59.930Z,85.82
2023-03-20T19:11:27.393Z,85.36
2023-03-20T19:13:55.043Z,85.69
2023-03-20T19:16:24.500Z,85.93
2023-03-20T19:18:53.026Z,85.65
2023-03-20T19:21:25.997Z,85.93
2023-03-20T19:23:54.179Z,85.92
2023-03-20T19:26:21.996Z,85.24
2023-03-20T19:28:49.862Z,85.37
2023-03-20T19:31:17.410Z,85.15
2023-03-20T19:33:45.085Z,85.53
2023-03-20T19:36:20.067Z,85.50
2023-03-20T19:38:48.952Z,86.10
2023-03-20T19:41:16.423Z,85.38
2023-03-20T19:43:52.406Z,85.37
2023-03-20T19:46:37.994Z,85.69
2023-03-20T19:49:07.133Z,85.28
2023-03-20T19:51:34.667Z,85.15
2023-03-20T19:54:03.963Z,85.29
2023-03-20T19:56:31.434Z,85.22
2023-03-20T19:58:58.948Z,84.99
2023-03-20T20:01:26.978Z,85.06
2023-03-20T20:03:55.038Z,85.63
2023-03-20T20:06:29.500Z,85.36
2023-03-20T20:08:58.635Z,85.29
2023-03-20T20:11:27.469Z,84.96
2023-03-20T20:14:06.293Z,85.18
2023-03-20T20:16:34.704Z,84.87
2023-03-20T20:19:02.387Z,86.54
2023-03-20T20:24:18.010Z,85.38
2023-03-20T20:26:54.964Z,85.59
2023-03-20T20:29:28.097Z,84.74
2023-03-20T20:31:55.800Z,84.85
2023-03-20T20:39:59.031Z,84.93
2023-03-20T20:42:27.953Z,85.01
2023-03-20T20:44:55.459Z,85.08
2023-03-20T20:47:23.179Z,85.22
2023-03-20T20:49:51.127Z,84.93
2023-03-20T20:52:19.016Z,85.40
2023-03-20T20:54:46.602Z,85.45
2023-03-20T20:57:14.328Z,84.44
2023-03-20T20:59:43.268Z,85.37
2023-03-20T21:02:11.948Z,84.72
2023-03-20T21:04:39.923Z,84.90
2023-03-20T21:07:10.611Z,84.79
2023-03-20T21:09:38.832Z,85.94
2023-03-20T21:12:06.752Z,84.89
2023-03-20T21:14:34.515Z,85.19
2023-03-20T21:17:03.479Z,84.75
2023-03-20T21:19:31.497Z,84.75
2023-03-20T21:21:59.000Z,84.73
2023-03-20T21:24:33.138Z,84.42
2023-03-20T21:27:02.054Z,84.47
2023-03-20T21:29:29.582Z,85.17
2023-03-20T21:31:57.120Z,84.64
2023-03-20T21:34:26.102Z,85.09
2023-03-20T21:36:53.577Z,84.57
2023-03-20T21:39:21.124Z,85.02
2023-03-20T21:41:48.589Z,84.80
2023-03-20T21:44:19.801Z,85.78
2023-03-20T21:47:58.183Z,85.55
2023-03-20T21:50:37.071Z,85.38
2023-03-20T21:53:12.457Z,85.14
2023-03-20T22:04:45.119Z,85.58
2023-03-20T22:18:21.582Z,85.47
2023-03-20T22:21:30.038Z,85.19
2023-03-20T22:27:05.211Z,85.12
2023-03-20T22:38:08.463Z,85.94
2023-03-20T22:43:55.114Z,85.52
2023-03-20T22:46:05.425Z,85.28
2023-03-20T22:48:35.599Z,85.94
2023-03-20T22:51:03.277Z,85.35
2023-03-20T22:53:32.177Z,85.26
2023-03-20T22:56:01.087Z,85.73
2023-03-20T22:58:28.641Z,85.57
2023-03-20T23:00:56.393Z,85.63
2023-03-20T23:03:39.879Z,85.60
2023-03-20T23:06:09.221Z,85.51
2023-03-20T23:08:48.050Z,85.94
2023-03-20T23:11:19.972Z,86.25
2023-03-20T23:13:47.529Z,85.60
2023-03-20T23:16:15.027Z,85.50
2023-03-20T23:18:42.646Z,85.77
2023-03-20T23:21:10.225Z,85.73
2023-03-20T23:23:38.282Z,85.39
2023-03-20T23:26:06.137Z,86.10
2023-03-20T23:28:35.110Z,86.31
2023-03-20T23:31:10.525Z,85.97
2023-03-20T23:33:38.622Z,86.85
2023-03-20T23:36:18.713Z,85.99
2023-03-20T23:38:52.487Z,85.41
2023-03-20T23:41:20.100Z,86.04
2023-03-20T23:43:49.815Z,86.00
2023-03-20T23:46:18.630Z,87.15
2023-03-20T23:48:46.110Z,85.69
2023-03-20T23:51:13.571Z,85.98
2023-03-20T23:53:41.170Z,85.99
2023-03-20T23:56:09.056Z,85.78
2023-03-20T23:58:41.941Z,85.81
